Time,TemperatureF,DewpointF,PressureIn,WindDirection,WindDirectionDegrees,WindSpeedMPH,WindSpeedGustMPH,Humidity,HourlyPrecipIn,Conditions,Clouds,dailyrainin,SoftwareType,DateUTC
2013-02-13 00:00:00,36.6,29.1,29.80,WSW,248,1.0,5.0,74,0.01,,---,0.36,VWS V14.01,2013-02-13 04:00:00,
2013-02-13 00:30:00,36.5,29.3,29.79,WSW,248,1.0,3.0,75,0.00,,---,0.36,VWS V14.01,2013-02-13 04:30:00,
2013-02-13 01:00:00,36.2,29.4,29.79,WSW,248,0.0,3.0,76,0.00,,---,0.00,VWS V14.01,2013-02-13 05:00:00,
2013-02-13 01:30:00,35.8,29.0,29.79,WSW,248,1.0,6.0,76,0.00,,---,0.00,VWS V14.01,2013-02-13 05:30:00,
2013-02-13 02:00:00,35.2,29.0,29.80,SW,225,1.0,4.0,78,0.00,,---,0.00,VWS V14.01,2013-02-13 06:00:00,
2013-02-13 02:30:00,35.5,28.7,29.79,West,270,1.0,5.0,76,0.00,,---,0.00,VWS V14.01,2013-02-13 06:30:00,
2013-02-13 03:00:00,34.5,28.0,29.78,West,270,0.0,5.0,77,0.00,,---,0.00,VWS V14.01,2013-02-13 07:00:00,
2013-02-13 03:30:00,33.9,27.5,29.78,SW,225,0.0,3.0,77,0.00,,---,0.00,VWS V14.01,2013-02-13 07:30:00,
2013-02-13 04:00:00,32.9,27.1,29.78,SW,225,0.0,3.0,79,0.00,,---,0.00,VWS V14.01,2013-02-13 08:00:00,
2013-02-13 04:30:00,32.8,26.4,29.79,WSW,248,1.0,6.0,77,0.00,,---,0.00,VWS V14.01,2013-02-13 08:30:00,
2013-02-13 05:00:00,32.1,25.7,29.79,WSW,248,0.0,3.0,77,0.00,,---,0.00,VWS V14.01,2013-02-13 09:00:00,
2013-02-13 05:30:00,30.3,26.1,29.82,WSW,248,0.0,2.0,84,0.00,,---,0.00,VWS V14.01,2013-02-13 09:30:00,
2013-02-13 06:00:00,29.0,25.1,29.82,WSW,248,0.0,0.0,85,0.00,,---,0.00,VWS V14.01,2013-02-13 10:00:00,
2013-02-13 06:30:00,27.9,24.5,29.83,WSW,248,0.0,0.0,87,0.00,,---,0.00,VWS V14.01,2013-02-13 10:30:00,
2013-02-13 07:00:00,27.2,24.1,29.82,WSW,248,0.0,0.0,88,0.00,,---,0.00,VWS V14.01,2013-02-13 11:00:00,
2013-02-13 07:30:00,26.3,23.5,29.83,WSW,248,0.0,0.0,89,0.00,,---,0.00,VWS V14.01,2013-02-13 11:30:00,
2013-02-13 08:00:00,26.3,23.5,29.84,WSW,248,0.0,0.0,89,0.00,,---,0.00,VWS V14.01,2013-02-13 12:00:00,
2013-02-13 08:30:00,26.3,23.5,29.84,WSW,248,0.0,0.0,89,0.00,,---,0.00,VWS V14.01,2013-02-13 12:30:00,
2013-02-13 09:00:00,27.0,24.5,29.84,WSW,248,0.0,1.0,90,0.00,,---,0.00,VWS V14.01,2013-02-13 13:00:00,
2013-02-13 09:30:00,30.6,25.2,29.84,WSW,248,0.0,3.0,80,0.00,,---,0.00,VWS V14.01,2013-02-13 13:30:00,
2013-02-13 10:00:00,33.5,25.8,29.83,WSW,248,0.0,4.0,73,0.00,,---,0.00,VWS V14.01,2013-02-13 14:00:00,
2013-02-13 10:30:00,36.2,26.0,29.83,WSW,248,1.0,6.0,66,0.00,,---,0.00,VWS V14.01,2013-02-13 14:30:00,
2013-02-13 11:00:00,37.5,26.8,29.82,WSW,248,2.0,6.0,65,0.00,,---,0.00,VWS V14.01,2013-02-13 15:00:00,
2013-02-13 11:30:00,38.6,25.9,29.81,WNW,292,2.0,10.0,60,0.01,,---,0.01,VWS V14.01,2013-02-13 15:30:00,
2013-02-13 12:00:00,39.5,25.5,29.80,NNW,338,2.0,8.0,57,0.01,,---,0.01,VWS V14.01,2013-02-13 16:00:00,
2013-02-13 12:30:00,40.5,25.2,29.79,SW,225,2.0,9.0,54,0.02,,---,0.02,VWS V14.01,2013-02-13 16:30:00,
2013-02-13 13:00:00,41.5,26.5,29.78,NW,315,2.0,7.0,55,0.02,,---,0.03,VWS V14.01,2013-02-13 17:00:00,
2013-02-13 13:30:00,41.0,25.6,29.78,WSW,248,2.0,9.0,54,0.03,,---,0.04,VWS V14.01,2013-02-13 17:30:00,
2013-02-13 14:00:00,41.0,25.2,29.78,WSW,248,1.0,7.0,53,0.03,,---,0.05,VWS V14.01,2013-02-13 18:00:00,
2013-02-13 14:30:00,41.5,26.1,29.77,SW,225,2.0,6.0,54,0.03,,---,0.06,VWS V14.01,2013-02-13 18:30:00,
2013-02-13 15:00:00,41.8,25.9,29.76,NW,315,1.0,6.0,53,0.03,,---,0.07,VWS V14.01,2013-02-13 19:00:00,
2013-02-13 15:30:00,41.3,25.0,29.76,WNW,292,2.0,7.0,52,0.03,,---,0.08,VWS V14.01,2013-02-13 19:30:00,
2013-02-13 16:00:00,40.1,25.2,29.75,SSW,202,1.0,6.0,55,0.03,,---,0.09,VWS V14.01,2013-02-13 20:00:00,
2013-02-13 16:30:00,40.2,24.5,29.75,NW,315,1.0,4.0,53,0.03,,---,0.10,VWS V14.01,2013-02-13 20:30:00,
2013-02-13 17:00:00,40.1,24.8,29.73,WSW,248,1.0,6.0,54,0.02,,---,0.10,VWS V14.01,2013-02-13 21:00:00,
2013-02-13 17:30:00,39.3,24.9,29.73,SW,225,0.0,5.0,56,0.01,,---,0.10,VWS V14.01,2013-02-13 21:30:00,
2013-02-13 18:00:00,38.0,24.1,29.74,SW,225,0.0,0.0,57,0.00,,---,0.10,VWS V14.01,2013-02-13 22:00:00,
2013-02-13 18:30:00,36.0,23.9,29.74,SW,225,0.0,0.0,61,0.00,,---,0.10,VWS V14.01,2013-02-13 22:30:00,
2013-02-13 19:00:00,33.5,24.1,29.72,SW,225,0.0,0.0,68,0.00,,---,0.10,VWS V14.01,2013-02-13 23:00:00,
2013-02-13 19:30:00,31.3,24.0,29.73,SW,225,0.0,0.0,74,0.00,,---,0.10,VWS V14.01,2013-02-13 23:30:00,
2013-02-13 20:00:00,30.1,23.8,29.73,SW,225,0.0,0.0,77,0.00,,---,0.10,VWS V14.01,2013-02-14 00:00:00,
2013-02-13 20:30:00,29.2,23.8,29.73,SW,225,0.0,0.0,80,0.00,,---,0.10,VWS V14.01,2013-02-14 00:30:00,
2013-02-13 21:00:00,28.9,23.5,29.73,SW,225,0.0,0.0,80,0.00,,---,0.10,VWS V14.01,2013-02-14 01:00:00,
2013-02-13 21:30:00,28.7,23.9,29.73,SW,225,0.0,0.0,82,0.00,,---,0.10,VWS V14.01,2013-02-14 01:30:00,
2013-02-13 22:00:00,28.0,23.5,29.75,SW,225,0.0,0.0,83,0.00,,---,0.10,VWS V14.01,2013-02-14 02:00:00,
2013-02-13 22:30:00,27.7,23.8,29.74,SW,225,0.0,0.0,85,0.00,,---,0.10,VWS V14.01,2013-02-14 02:30:00,
2013-02-13 23:30:00,27.8,24.2,29.72,WSW,256,0.0,0.0,86,0.00,,---,0.10,VWS V14.01,2013-02-14 03:30:00,
2013-02-13 23:31:00,27.8,24.2,29.72,WSW,256,0.0,0.0,86,0.00,,---,0.10,VWS V14.01,2013-02-14 03:31:00,
2013-02-13 23:36:00,28.0,24.4,29.72,WSW,256,0.0,0.0,86,0.00,,---,0.10,VWS V14.01,2013-02-14 03:36:00,
2013-02-13 23:42:00,28.1,24.5,29.72,WSW,256,0.0,0.0,86,0.00,,---,0.10,VWS V14.01,2013-02-14 03:42:00,
2013-02-13 23:48:00,28.3,24.7,29.72,WSW,256,0.0,0.0,86,0.00,,---,0.10,VWS V14.01,2013-02-14 03:48:00,
2013-02-13 23:53:00,28.4,24.8,29.72,WSW,256,0.0,0.0,86,0.00,,---,0.10,VWS V14.01,2013-02-14 03:53:00,
2013-02-13 23:59:00,28.3,24.4,29.72,WSW,256,0.0,0.0,85,0.00,,---,0.10,VWS V14.01,2013-02-14 03:59:00,